Time;durP1;ratioP1;P1;durP2;ratioP2;P2;SDS_P1;SDS_P2;PMS_P1;PMS_P2;Temp;Humidity;BMP_temperature;BMP_pressure;BME280_temperature;BME280_humidity;BME280_pressure;Samples;Min_cycle;Max_cycle;Signal;HPM_P1;HPM_P2
2021/08/21 00:02:13;;;;;;;7.57;4.32;;;;;;;23.10;50.10;99926.69;5055620;28;20032;-71
2021/08/21 00:04:39;;;;;;;10.45;4.63;;;;;;;23.06;49.69;99930.94;5053870;28;20260;-71
2021/08/21 00:07:05;;;;;;;7.93;4.60;;;;;;;22.98;49.92;99929.44;5057091;28;20020;-71
2021/08/21 00:09:37;;;;;;;11.00;4.32;;;;;;;22.93;48.67;99927.44;5053391;28;20032;-71
2021/08/21 00:12:04;;;;;;;8.27;4.00;;;;;;;22.69;49.24;99916.84;5055753;28;20437;-71
2021/08/21 00:14:30;;;;;;;7.50;4.00;;;;;;;22.51;48.91;99923.22;5047760;28;20390;-71
2021/08/21 00:16:55;;;;;;;8.00;3.97;;;;;;;22.35;49.34;99921.22;5054918;28;20033;-71
2021/08/21 00:19:21;;;;;;;9.65;3.88;;;;;;;22.36;52.11;99926.38;5052599;28;20279;-71
2021/08/21 00:21:48;;;;;;;7.65;4.63;;;;;;;22.47;51.66;99928.25;5048183;28;20128;-72
2021/08/21 00:24:14;;;;;;;8.07;4.18;;;;;;;22.47;50.84;99925.56;5053448;28;20056;-71
2021/08/21 00:26:39;;;;;;;7.75;4.47;;;;;;;22.57;49.65;99924.97;5033339;28;20263;-71
2021/08/21 00:29:05;;;;;;;6.57;3.67;;;;;;;22.61;49.22;99923.44;5055090;28;20036;-71
2021/08/21 00:31:30;;;;;;;7.30;4.30;;;;;;;22.63;48.57;99922.16;5048614;28;20141;-71
2021/08/21 00:33:56;;;;;;;5.65;3.92;;;;;;;22.70;50.60;99915.81;5046393;28;20026;-71
2021/08/21 00:36:21;;;;;;;7.00;3.60;;;;;;;22.79;51.14;99922.47;5050798;28;20044;-71
2021/08/21 00:38:46;;;;;;;7.10;4.57;;;;;;;22.72;51.10;99928.00;5048412;28;20030;-71
2021/08/21 00:41:12;;;;;;;7.75;3.70;;;;;;;22.70;51.74;99927.41;5047517;28;20220;-71
2021/08/21 00:43:39;;;;;;;5.13;3.92;;;;;;;22.65;51.42;99930.00;5048005;28;20029;-71
2021/08/21 00:46:04;;;;;;;9.48;4.45;;;;;;;22.71;50.53;99930.94;5051454;28;20032;-71
2021/08/21 00:48:30;;;;;;;10.57;3.92;;;;;;;22.68;51.42;99940.34;5046951;28;20033;-71
2021/08/21 00:50:58;;;;;;;5.82;4.03;;;;;;;22.70;51.16;99940.09;5049383;28;20215;-71
2021/08/21 00:53:25;;;;;;;5.15;4.03;;;;;;;22.53;51.81;99937.28;5042464;28;20254;-71
2021/08/21 00:55:50;;;;;;;10.23;5.05;;;;;;;22.50;51.98;99941.28;5046185;28;20261;-71
2021/08/21 00:58:22;;;;;;;9.48;4.55;;;;;;;22.51;51.64;99939.41;5051375;28;20049;-71
2021/08/21 01:00:47;;;;;;;9.93;4.70;;;;;;;22.43;52.03;99937.06;5046195;28;20032;-71
2021/08/21 01:03:13;;;;;;;5.15;4.28;;;;;;;22.53;51.97;99932.72;5051615;28;20044;-71
2021/08/21 01:05:39;;;;;;;11.80;4.30;;;;;;;22.38;53.11;99923.44;5055393;28;20032;-71
2021/08/21 01:08:05;;;;;;;5.78;4.75;;;;;;;22.42;52.82;99933.53;5037902;28;20322;-71
2021/08/21 01:10:30;;;;;;;8.30;4.05;;;;;;;22.27;52.84;99941.28;5040547;28;20269;-71
2021/08/21 01:12:56;;;;;;;6.95;4.40;;;;;;;22.28;53.21;99937.53;5046829;28;20044;-71
2021/08/21 01:15:26;;;;;;;7.38;4.65;;;;;;;22.28;53.12;99934.81;5048101;28;20260;-71
2021/08/21 01:17:55;;;;;;;6.85;4.13;;;;;;;22.30;53.54;99946.22;5046405;28;20070;-71
2021/08/21 01:20:22;;;;;;;11.70;4.65;;;;;;;22.17;54.02;99949.94;5046708;28;20057;-71
2021/08/21 01:22:48;;;;;;;6.32;4.75;;;;;;;22.05;54.44;99948.28;5046423;28;20037;-71
2021/08/21 01:25:21;;;;;;;9.43;4.22;;;;;;;22.15;54.32;99954.75;5050219;28;20081;-71
2021/08/21 01:27:46;;;;;;;6.75;4.35;;;;;;;22.21;54.27;99953.81;5046653;28;20299;-71
2021/08/21 01:30:12;;;;;;;5.85;4.85;;;;;;;22.13;54.55;99935.28;5045240;28;20033;-71
2021/08/21 01:32:38;;;;;;;8.52;4.53;;;;;;;22.20;54.63;99949.47;5055439;28;20024;-71
2021/08/21 01:35:05;;;;;;;6.18;4.43;;;;;;;22.10;54.71;99961.91;5042522;28;20033;-71
2021/08/21 01:37:31;;;;;;;13.27;5.07;;;;;;;21.95;54.95;99954.22;5049997;28;20319;-71
2021/08/21 01:39:57;;;;;;;7.38;4.28;;;;;;;22.05;54.79;99953.69;5053906;28;20044;-71
2021/08/21 01:42:24;;;;;;;8.05;4.63;;;;;;;22.14;54.51;99949.59;5049616;28;20033;-71
2021/08/21 01:44:49;;;;;;;12.80;4.50;;;;;;;21.89;55.16;99947.06;5056832;28;20037;-71
2021/08/21 01:47:16;;;;;;;4.45;4.00;;;;;;;21.90;55.46;99951.38;5049595;28;20032;-71
2021/08/21 01:49:42;;;;;;;7.85;4.45;;;;;;;21.90;55.42;99952.22;5046347;28;20216;-71
2021/08/21 01:52:08;;;;;;;9.60;4.45;;;;;;;21.88;55.65;99948.91;5042823;28;20029;-71
2021/08/21 01:54:35;;;;;;;11.07;4.93;;;;;;;21.86;55.49;99951.03;5037152;28;20322;-71
2021/08/21 01:57:02;;;;;;;13.40;5.57;;;;;;;21.85;55.96;99945.88;5056401;28;20037;-71
2021/08/21 01:59:47;;;;;;;7.25;4.80;;;;;;;21.79;55.79;99949.44;5044079;28;20041;-71
2021/08/21 02:02:15;;;;;;;9.48;4.60;;;;;;;21.69;55.89;99950.00;5046738;28;20025;-71
2021/08/21 02:04:41;;;;;;;6.47;4.43;;;;;;;21.44;57.27;99960.09;5044746;28;20033;-71
2021/08/21 02:07:07;;;;;;;8.63;4.35;;;;;;;21.26;57.83;99951.00;5050945;28;20032;-71
2021/08/21 02:09:34;;;;;;;5.65;4.65;;;;;;;21.10;58.20;99956.16;5041995;28;20396;-71
2021/08/21 02:12:03;;;;;;;5.95;4.40;;;;;;;20.75;59.33;99943.25;5045025;28;20234;-71
2021/08/21 02:14:28;;;;;;;10.80;5.18;;;;;;;20.78;58.65;99958.13;5029513;28;20353;-71
2021/08/21 02:16:57;;;;;;;8.48;4.97;;;;;;;20.89;58.78;99954.75;5028376;28;20032;-71
2021/08/21 02:19:23;;;;;;;12.93;4.93;;;;;;;20.94;58.00;99954.88;5042702;28;20033;-71
2021/08/21 02:21:50;;;;;;;5.72;4.35;;;;;;;21.06;58.00;99947.69;5041564;28;20650;-71
2021/08/21 02:24:17;;;;;;;11.23;4.80;;;;;;;20.99;57.94;99953.16;5045425;28;20032;-71
2021/08/21 02:26:43;;;;;;;10.75;5.22;;;;;;;21.12;57.10;99960.25;5056864;28;20024;-71
2021/08/21 02:29:12;;;;;;;9.20;4.88;;;;;;;21.24;55.63;99952.28;5051287;28;20049;-71
2021/08/21 02:31:38;;;;;;;8.18;5.03;;;;;;;21.32;54.92;99950.09;5047528;28;20326;-71
2021/08/21 02:34:05;;;;;;;7.18;5.50;;;;;;;21.43;53.43;99958.47;5046284;28;20069;-71
2021/08/21 02:36:30;;;;;;;8.90;5.00;;;;;;;21.49;51.80;99946.78;5049187;28;20093;-71
2021/08/21 02:38:56;;;;;;;12.70;5.03;;;;;;;21.55;51.83;99956.63;5051177;28;20048;-71
2021/08/21 02:41:22;;;;;;;12.00;4.72;;;;;;;21.60;51.72;99959.47;5060452;28;20021;-71
2021/08/21 02:43:47;;;;;;;8.02;4.65;;;;;;;21.68;50.99;99956.44;5054012;28;20326;-71
2021/08/21 02:46:13;;;;;;;10.20;4.93;;;;;;;21.64;51.24;99958.78;5049656;28;20036;-71
2021/08/21 02:48:38;;;;;;;9.48;4.80;;;;;;;21.63;50.81;99965.22;5041480;28;20042;-71
2021/08/21 02:51:03;;;;;;;8.90;5.38;;;;;;;21.56;52.04;99950.19;5048790;28;20330;-71
2021/08/21 02:53:29;;;;;;;6.60;5.13;;;;;;;21.60;52.84;99960.28;5051982;28;20078;-71
2021/08/21 02:55:55;;;;;;;9.57;5.20;;;;;;;21.45;52.59;99930.25;5060517;28;20029;-71
2021/08/21 02:58:20;;;;;;;13.88;5.10;;;;;;;21.61;51.24;99955.72;5048481;28;20041;-71
2021/08/21 03:00:46;;;;;;;11.63;5.70;;;;;;;21.60;50.71;99970.25;5048635;28;20538;-72
2021/08/21 03:03:11;;;;;;;8.35;4.95;;;;;;;21.54;50.30;99980.06;5054844;28;20310;-71
2021/08/21 03:05:37;;;;;;;16.42;5.95;;;;;;;21.29;51.16;99971.28;5054975;28;20029;-71
2021/08/21 03:08:03;;;;;;;15.43;5.43;;;;;;;21.24;51.17;99984.59;5054033;28;20061;-71
2021/08/21 03:10:28;;;;;;;6.70;5.13;;;;;;;21.07;51.96;99989.72;5045499;28;20033;-71
2021/08/21 03:12:54;;;;;;;10.90;6.03;;;;;;;20.86;52.20;99996.38;5052929;28;20033;-71
2021/08/21 03:15:20;;;;;;;11.07;5.53;;;;;;;20.62;52.84;99986.44;5051228;28;20350;-71
2021/08/21 03:17:45;;;;;;;9.82;5.10;;;;;;;20.49;53.61;99990.09;5025363;28;20061;-71
2021/08/21 03:20:11;;;;;;;12.88;5.00;;;;;;;20.42;53.83;99993.88;5046433;28;20029;-71
2021/08/21 03:22:37;;;;;;;15.75;5.75;;;;;;;20.49;54.06;100008.91;5059478;28;20036;-71
2021/08/21 03:25:03;;;;;;;11.30;5.07;;;;;;;20.50;54.45;99999.78;5039291;28;20020;-71
2021/08/21 03:27:28;;;;;;;10.18;5.50;;;;;;;20.59;54.61;100000.34;5062769;28;20029;-71
2021/08/21 03:29:54;;;;;;;8.73;5.32;;;;;;;20.59;54.77;100005.72;5057217;28;20048;-72
2021/08/21 03:32:19;;;;;;;7.63;5.10;;;;;;;20.63;54.63;100009.63;5052474;28;20036;-71
2021/08/21 03:34:45;;;;;;;6.60;5.18;;;;;;;20.70;54.43;100010.38;5056422;28;20334;-71
2021/08/21 03:37:11;;;;;;;8.57;5.30;;;;;;;20.68;54.34;100021.38;5049615;28;20092;-71
2021/08/21 03:39:38;;;;;;;14.43;5.50;;;;;;;20.53;54.74;100020.88;5053147;28;20033;-72
2021/08/21 03:42:05;;;;;;;12.70;5.50;;;;;;;20.68;54.46;100015.16;5047389;28;20168;-72
2021/08/21 03:44:30;;;;;;;10.05;5.78;;;;;;;20.72;53.94;100014.50;5057720;28;20029;-72
2021/08/21 03:46:56;;;;;;;16.17;5.93;;;;;;;20.76;54.19;100028.31;5045087;28;20309;-71
2021/08/21 03:49:21;;;;;;;7.50;4.82;;;;;;;20.85;53.41;100018.97;5052876;28;20049;-71
2021/08/21 03:51:47;;;;;;;12.27;5.07;;;;;;;21.00;53.46;100030.19;5047306;28;20032;-71
2021/08/21 03:54:12;;;;;;;7.05;5.18;;;;;;;20.97;53.27;100027.13;5053293;28;20343;-71
2021/08/21 03:56:38;;;;;;;16.88;5.88;;;;;;;20.96;54.01;100029.00;5031372;28;20029;-71
2021/08/21 03:59:04;;;;;;;18.77;5.07;;;;;;;21.01;54.17;100029.16;5048791;28;20033;-72
2021/08/21 04:01:30;;;;;;;14.38;6.00;;;;;;;21.13;53.68;100020.31;5047328;28;20094;-71
2021/08/21 04:03:55;;;;;;;15.23;6.03;;;;;;;21.08;53.96;100026.38;5049074;28;20041;-71
2021/08/21 04:06:21;;;;;;;11.02;4.93;;;;;;;21.17;53.84;100021.53;5052589;28;20219;-72
2021/08/21 04:08:47;;;;;;;17.08;5.72;;;;;;;21.30;53.46;100024.91;5045721;28;20108;-71
2021/08/21 04:11:12;;;;;;;16.75;5.78;;;;;;;21.26;53.59;100022.91;5060988;28;20040;-71
2021/08/21 04:13:38;;;;;;;10.52;4.97;;;;;;;21.33;53.51;100015.56;5045754;28;20039;-71
2021/08/21 04:16:03;;;;;;;11.40;5.63;;;;;;;21.40;52.89;100013.63;5047577;28;20033;-71
2021/08/21 04:18:29;;;;;;;13.98;5.70;;;;;;;21.37;53.16;100019.44;5055398;28;20036;-71
2021/08/21 04:20:54;;;;;;;19.90;5.65;;;;;;;21.47;55.29;100010.84;5047262;28;20139;-72
2021/08/21 04:23:20;;;;;;;12.18;6.18;;;;;;;21.43;55.63;100021.25;5049355;28;20248;-71
2021/08/21 04:25:45;;;;;;;9.32;5.50;;;;;;;21.32;53.31;100025.50;5046152;28;20096;-72
2021/08/21 04:28:11;;;;;;;9.15;5.65;;;;;;;21.31;51.78;100021.19;5044495;28;20036;-72
2021/08/21 04:30:36;;;;;;;11.68;6.25;;;;;;;21.22;53.11;100022.53;5051299;28;20250;-71
2021/08/21 04:33:02;;;;;;;10.43;5.70;;;;;;;21.30;53.57;100024.09;5047381;28;20033;-71
2021/08/21 04:35:27;;;;;;;10.23;5.18;;;;;;;21.33;53.31;100026.34;5051725;28;20365;-71
2021/08/21 04:37:53;;;;;;;15.32;5.78;;;;;;;21.39;51.84;100032.69;5048270;28;20100;-72
2021/08/21 04:40:20;;;;;;;12.65;5.60;;;;;;;21.56;51.74;100039.13;5043227;28;20037;-71
2021/08/21 04:42:46;;;;;;;16.23;5.75;;;;;;;21.56;51.72;100042.63;5055688;28;20222;-71
2021/08/21 04:45:12;;;;;;;12.13;6.15;;;;;;;21.84;51.36;100042.06;5062814;28;20029;-71
2021/08/21 04:47:38;;;;;;;18.83;6.55;;;;;;;21.98;50.98;100045.41;5055522;28;20052;-71
2021/08/21 04:50:04;;;;;;;16.05;9.07;;;;;;;22.10;50.92;100048.19;5052556;28;20110;-72
2021/08/21 04:52:29;;;;;;;25.08;10.98;;;;;;;22.08;50.26;100047.59;5050828;28;20030;-72
2021/08/21 04:54:55;;;;;;;24.10;11.00;;;;;;;21.66;52.54;100053.69;5055373;28;20029;-72
2021/08/21 04:57:21;;;;;;;21.08;11.63;;;;;;;21.80;52.33;100050.81;5043768;28;20323;-72
2021/08/21 04:59:46;;;;;;;13.60;8.90;;;;;;;21.97;52.21;100057.25;5044407;28;20083;-72
2021/08/21 05:02:12;;;;;;;14.27;8.77;;;;;;;22.08;51.09;100064.59;5052184;28;20037;-72
2021/08/21 05:04:37;;;;;;;21.25;12.45;;;;;;;22.44;50.24;100055.53;5051905;28;20060;-72
2021/08/21 05:07:03;;;;;;;9.00;6.10;;;;;;;22.77;48.66;100052.28;5047420;28;20094;-72
2021/08/21 05:09:28;;;;;;;12.80;8.30;;;;;;;22.81;48.13;100056.19;5050887;28;20108;-71
2021/08/21 05:11:54;;;;;;;17.40;11.93;;;;;;;22.96;47.91;100061.16;5046529;28;20365;-72
2021/08/21 05:14:19;;;;;;;16.17;9.10;;;;;;;23.19;47.32;100061.16;5058268;28;20665;-72
2021/08/21 05:16:46;;;;;;;11.90;7.18;;;;;;;23.51;46.56;100063.44;5049318;28;20041;-71
2021/08/21 05:19:27;;;;;;;12.43;6.57;;;;;;;23.47;46.49;100056.88;5048354;28;20052;-71
2021/08/21 05:21:56;;;;;;;13.07;7.45;;;;;;;23.45;49.26;100059.81;5049167;28;20021;-71
2021/08/21 05:24:22;;;;;;;17.77;7.43;;;;;;;23.55;49.78;100061.94;5048121;28;20037;-71
2021/08/21 05:26:47;;;;;;;13.25;7.35;;;;;;;23.62;50.19;100067.19;5045996;28;20029;-71
2021/08/21 05:29:14;;;;;;;8.38;5.97;;;;;;;23.77;47.59;100073.75;5050989;28;20029;-71
2021/08/21 05:31:40;;;;;;;7.30;5.00;;;;;;;24.22;43.75;100069.47;5047208;28;20049;-74
2021/08/21 05:34:05;;;;;;;7.85;4.78;;;;;;;24.41;44.44;100073.63;5031690;28;20176;-74
2021/08/21 05:36:30;;;;;;;12.98;6.18;;;;;;;24.60;43.94;100068.78;5050954;28;20067;-74
2021/08/21 05:38:56;;;;;;;10.90;4.78;;;;;;;24.79;41.70;100070.19;5053042;28;20027;-74
2021/08/21 05:41:21;;;;;;;9.52;4.85;;;;;;;24.97;42.30;100067.25;5061549;28;20274;-74
2021/08/21 05:43:47;;;;;;;7.20;5.10;;;;;;;25.12;41.85;100062.06;5049257;28;20037;-74
2021/08/21 05:46:12;;;;;;;11.65;4.30;;;;;;;25.36;40.79;100061.84;5040706;28;20013;-74
2021/08/21 05:48:38;;;;;;;8.15;4.38;;;;;;;25.34;41.16;100058.56;5048308;28;20033;-74
2021/08/21 05:51:03;;;;;;;6.47;4.78;;;;;;;25.40;40.91;100054.84;5049749;28;20033;-74
2021/08/21 05:53:29;;;;;;;6.18;4.40;;;;;;;25.89;38.84;100050.28;5060656;28;20043;-73
2021/08/21 05:55:54;;;;;;;9.15;4.72;;;;;;;26.26;38.08;100055.03;5043423;28;20399;-74
2021/08/21 05:58:19;;;;;;;10.98;4.78;;;;;;;26.66;37.37;100051.88;5046715;28;20079;-74
2021/08/21 06:00:45;;;;;;;8.60;4.65;;;;;;;26.94;36.50;100053.41;5049843;28;20108;-75
2021/08/21 06:03:10;;;;;;;7.00;4.18;;;;;;;26.40;37.60;100046.22;5037336;28;20021;-74
2021/08/21 06:05:41;;;;;;;5.90;4.50;;;;;;;26.56;37.08;100051.78;5029178;28;20079;-74
2021/08/21 06:08:06;;;;;;;8.52;4.50;;;;;;;26.94;36.26;100054.25;5043434;28;20052;-74
2021/08/21 06:10:32;;;;;;;7.85;4.00;;;;;;;26.88;35.96;100057.19;5040972;28;20029;-74
2021/08/21 06:12:57;;;;;;;10.98;4.70;;;;;;;27.28;35.66;100052.03;5050012;28;20385;-74
2021/08/21 06:15:23;;;;;;;11.82;6.25;;;;;;;27.50;35.68;100037.47;5050049;28;20306;-75
2021/08/21 06:17:48;;;;;;;9.40;5.25;;;;;;;27.88;34.89;100049.84;5049107;28;20525;-74
2021/08/21 06:20:14;;;;;;;7.10;4.45;;;;;;;27.55;35.35;100049.16;5048729;28;20025;-74
2021/08/21 06:22:40;;;;;;;7.85;5.05;;;;;;;27.99;33.88;100046.88;5052621;28;22101;-74
2021/08/21 06:25:08;;;;;;;9.00;4.70;;;;;;;28.30;33.94;100057.88;5050074;28;20108;-74
2021/08/21 06:27:34;;;;;;;5.75;4.30;;;;;;;28.66;33.45;100058.69;5050280;28;20083;-74
2021/08/21 06:29:59;;;;;;;12.48;4.55;;;;;;;29.08;32.47;100054.84;5049099;28;20338;-74
2021/08/21 06:32:25;;;;;;;14.48;4.97;;;;;;;29.34;32.42;100052.88;5041355;28;20044;-74
2021/08/21 06:34:50;;;;;;;12.00;5.07;;;;;;;29.34;31.66;100052.88;5048978;28;20025;-74
2021/08/21 06:37:15;;;;;;;7.10;4.68;;;;;;;29.51;31.66;100053.38;5047483;28;20025;-75
2021/08/21 06:39:41;;;;;;;10.70;4.95;;;;;;;29.70;31.78;100048.94;5049584;28;20041;-74
2021/08/21 06:42:06;;;;;;;10.20;4.53;;;;;;;29.82;31.17;100049.41;5051783;28;20044;-74
2021/08/21 06:44:32;;;;;;;8.38;4.65;;;;;;;29.44;31.42;100050.16;5048857;28;20040;-74
2021/08/21 06:46:57;;;;;;;8.43;4.32;;;;;;;29.87;30.97;100046.66;5051124;28;20025;-74
2021/08/21 06:49:24;;;;;;;9.05;4.93;;;;;;;30.12;30.96;100048.44;5052927;28;20056;-74
2021/08/21 06:51:49;;;;;;;9.63;4.82;;;;;;;30.49;30.52;100050.63;5047923;28;20808;-74
2021/08/21 06:54:15;;;;;;;9.77;4.55;;;;;;;30.68;29.83;100053.50;5049008;28;20036;-74
2021/08/21 06:56:40;;;;;;;7.93;4.80;;;;;;;30.74;29.08;100041.41;5053829;28;20029;-74
2021/08/21 06:59:06;;;;;;;9.48;4.70;;;;;;;30.87;29.10;100050.88;5037395;28;20029;-74
2021/08/21 07:01:31;;;;;;;6.68;4.10;;;;;;;30.60;29.65;100051.41;5053050;28;20032;-74
2021/08/21 07:03:57;;;;;;;10.77;4.85;;;;;;;30.72;29.72;100054.56;5055297;28;20049;-75
2021/08/21 07:06:22;;;;;;;7.88;4.82;;;;;;;31.01;28.71;100046.34;5050293;28;20325;-74
2021/08/21 07:08:47;;;;;;;8.80;5.53;;;;;;;31.13;28.67;100049.50;5043844;28;20056;-74
2021/08/21 07:11:13;;;;;;;9.60;4.68;;;;;;;31.16;28.61;100053.59;5044566;28;20040;-74
2021/08/21 07:13:39;;;;;;;6.30;4.28;;;;;;;31.39;29.00;100044.59;5052533;28;20045;-74
2021/08/21 07:16:04;;;;;;;8.65;4.68;;;;;;;31.49;28.03;100045.56;5039014;28;20222;-74
2021/08/21 07:18:29;;;;;;;7.50;4.80;;;;;;;31.72;27.98;100048.31;5055107;28;20037;-75
2021/08/21 07:20:55;;;;;;;10.68;5.00;;;;;;;31.55;28.56;100039.75;5057350;28;20393;-74
2021/08/21 07:23:20;;;;;;;8.45;4.70;;;;;;;30.68;29.16;100047.22;5032081;28;20323;-74
2021/08/21 07:25:46;;;;;;;10.40;4.72;;;;;;;31.19;28.41;100054.94;5052965;28;20037;-74
2021/08/21 07:28:11;;;;;;;6.97;4.40;;;;;;;31.38;28.59;100047.63;5049104;28;20303;-74
2021/08/21 07:30:37;;;;;;;7.05;4.50;;;;;;;31.75;27.98;100052.38;5047789;28;20039;-75
2021/08/21 07:33:03;;;;;;;7.78;4.70;;;;;;;32.00;27.32;100053.94;5042930;28;20044;-75
2021/08/21 07:35:28;;;;;;;5.15;4.30;;;;;;;32.16;26.98;100049.84;5052477;28;20029;-74
2021/08/21 07:37:54;;;;;;;7.82;5.10;;;;;;;32.20;27.41;100047.34;5052352;28;20044;-75
2021/08/21 07:40:19;;;;;;;7.22;4.10;;;;;;;32.12;27.22;100046.09;5053583;28;20593;-74
2021/08/21 07:42:44;;;;;;;7.78;4.45;;;;;;;31.67;27.83;100048.34;5047247;28;20103;-74
2021/08/21 07:45:11;;;;;;;8.48;6.40;;;;;;;31.33;28.03;100051.25;5043895;28;20247;-74
2021/08/21 07:47:36;;;;;;;7.07;4.45;;;;;;;31.99;27.48;100044.91;5052353;28;20017;-74
2021/08/21 07:50:02;;;;;;;7.63;4.60;;;;;;;32.13;27.54;100046.91;5047594;28;20093;-74
2021/08/21 07:52:27;;;;;;;6.07;4.60;;;;;;;31.83;28.05;100040.75;5053126;28;20037;-75
2021/08/21 07:54:53;;;;;;;10.27;4.75;;;;;;;32.16;27.29;100041.63;5052612;28;20037;-74
2021/08/21 07:57:19;;;;;;;9.02;4.32;;;;;;;32.62;27.16;100044.50;5054550;28;20013;-74
2021/08/21 07:59:44;;;;;;;6.85;4.22;;;;;;;32.53;26.40;100042.75;5057176;28;20052;-74
2021/08/21 08:02:10;;;;;;;6.13;4.50;;;;;;;32.44;26.44;100017.94;5059520;28;20256;-74
2021/08/21 08:04:35;;;;;;;7.63;4.18;;;;;;;32.99;25.87;100043.56;5054531;28;20090;-74
2021/08/21 08:07:01;;;;;;;5.75;3.45;;;;;;;33.36;26.05;100036.31;5056600;28;20028;-75
2021/08/21 08:09:28;;;;;;;6.00;4.22;;;;;;;33.47;24.86;100026.75;5051727;28;20091;-74
2021/08/21 08:11:54;;;;;;;6.15;4.05;;;;;;;33.33;25.58;100025.94;5048726;28;20124;-74
2021/08/21 08:14:19;;;;;;;11.45;4.20;;;;;;;33.28;25.43;100028.75;5054856;28;20033;-74
2021/08/21 08:16:45;;;;;;;8.55;4.50;;;;;;;33.66;24.93;100031.28;5048648;28;20365;-75
2021/08/21 08:19:10;;;;;;;5.57;4.20;;;;;;;33.42;25.09;100024.13;5050676;28;20036;-74
2021/08/21 08:21:36;;;;;;;6.80;4.10;;;;;;;33.68;25.04;100026.31;5047799;28;20330;-73
2021/08/21 08:24:01;;;;;;;12.20;4.20;;;;;;;33.59;24.94;100023.47;5055516;28;20037;-74
2021/08/21 08:26:27;;;;;;;7.95;4.40;;;;;;;32.98;25.44;100021.94;5048842;28;20037;-74
2021/08/21 08:28:52;;;;;;;6.25;4.30;;;;;;;33.09;25.84;100022.53;5048048;28;20030;-74
2021/08/21 08:31:17;;;;;;;5.32;4.03;;;;;;;33.25;25.64;100015.63;5048338;28;20311;-74
2021/08/21 08:33:43;;;;;;;10.25;4.25;;;;;;;33.47;24.75;100012.22;5059169;28;20037;-74
2021/08/21 08:36:08;;;;;;;7.30;4.03;;;;;;;33.31;25.30;100006.22;5052853;28;20040;-74
2021/08/21 08:38:34;;;;;;;9.40;4.22;;;;;;;33.42;25.31;100006.81;5053454;28;20095;-74
2021/08/21 08:41:00;;;;;;;7.18;3.88;;;;;;;33.62;25.16;100006.38;5058680;28;20028;-74
2021/08/21 08:43:26;;;;;;;8.35;4.18;;;;;;;33.69;25.33;100001.28;5048925;28;20033;-73
2021/08/21 08:45:52;;;;;;;6.40;3.95;;;;;;;33.46;24.70;100005.91;5046647;28;20038;-72
2021/08/21 08:48:18;;;;;;;5.68;3.95;;;;;;;33.79;23.68;99997.50;5035562;28;20056;-72
2021/08/21 08:50:44;;;;;;;8.13;4.38;;;;;;;33.29;24.56;99994.69;5053914;28;20032;-74
2021/08/21 08:53:10;;;;;;;8.13;4.78;;;;;;;33.03;24.97;99994.41;5054822;28;20090;-73
2021/08/21 08:55:35;;;;;;;6.85;4.13;;;;;;;32.89;25.63;99996.31;5045273;28;20078;-74
2021/08/21 08:58:01;;;;;;;7.63;4.28;;;;;;;32.91;25.12;99992.16;5054745;28;20223;-74
2021/08/21 09:00:28;;;;;;;5.32;4.28;;;;;;;33.31;25.08;99984.28;5051557;28;20394;-72
2021/08/21 09:02:55;;;;;;;9.70;4.47;;;;;;;33.50;25.07;99984.94;5042339;28;20041;-74
2021/08/21 09:05:24;;;;;;;8.05;5.05;;;;;;;33.07;25.59;99973.47;5051002;28;20037;-74
2021/08/21 09:07:55;;;;;;;10.40;6.38;;;;;;;33.42;24.79;99982.13;5051955;28;20127;-72
2021/08/21 09:10:26;;;;;;;7.63;3.65;;;;;;;33.37;24.38;99983.03;5042665;28;20051;-72
2021/08/21 09:13:12;;;;;;;8.88;4.45;;;;;;;33.48;24.49;99987.19;5050353;28;20033;-72
2021/08/21 09:15:40;;;;;;;7.85;4.20;;;;;;;33.71;24.62;99984.50;5047107;28;20334;-72
2021/08/21 09:18:10;;;;;;;7.50;4.18;;;;;;;33.62;24.53;99979.75;5042694;28;20109;-72
2021/08/21 09:20:47;;;;;;;8.73;4.45;;;;;;;32.93;25.43;99981.69;5037370;28;20277;-72
2021/08/21 09:23:34;;;;;;;9.27;5.63;;;;;;;32.49;25.90;99987.72;5051357;28;20388;-74
2021/08/21 09:26:14;;;;;;;7.32;3.95;;;;;;;32.71;25.62;99984.28;5046510;28;20270;-74
2021/08/21 09:28:42;;;;;;;7.50;4.65;;;;;;;32.65;26.12;99985.50;5050964;28;20025;-74
2021/08/21 09:31:12;;;;;;;10.15;4.80;;;;;;;32.76;25.75;99978.72;5047090;28;20319;-74
2021/08/21 09:33:41;;;;;;;7.93;3.83;;;;;;;32.93;24.98;99976.22;5045843;28;20358;-74
2021/08/21 09:36:14;;;;;;;5.72;3.83;;;;;;;32.35;25.28;99973.97;5047623;28;20033;-74
2021/08/21 09:38:41;;;;;;;9.65;4.68;;;;;;;31.44;27.07;99978.84;5051789;28;20048;-74
2021/08/21 09:41:09;;;;;;;11.25;4.30;;;;;;;31.39;27.44;99976.19;5047386;28;20029;-74
2021/08/21 09:43:38;;;;;;;9.85;4.13;;;;;;;31.53;27.06;99967.25;5055563;28;20036;-74
2021/08/21 09:46:22;;;;;;;8.48;4.18;;;;;;;31.56;26.20;99964.72;5051864;28;20056;-74
2021/08/21 09:49:07;;;;;;;8.27;4.17;;;;;;;31.41;26.42;99965.75;5045813;28;20043;-74
2021/08/21 09:51:39;;;;;;;6.38;3.75;;;;;;;31.28;26.67;99958.28;5049075;28;20493;-74
2021/08/21 09:54:11;;;;;;;5.05;3.47;;;;;;;31.34;26.37;99956.28;5053897;28;20265;-74
2021/08/21 09:56:39;;;;;;;5.30;4.20;;;;;;;31.36;27.39;99951.34;5049890;28;20096;-74
2021/08/21 09:59:06;;;;;;;9.80;4.20;;;;;;;31.11;27.09;99946.94;5048248;28;20045;-74
2021/08/21 10:01:32;;;;;;;5.50;4.20;;;;;;;31.12;27.63;99949.38;5055763;28;20024;-74
2021/08/21 10:03:59;;;;;;;7.78;3.58;;;;;;;31.17;26.98;99953.19;5054498;28;20130;-74
2021/08/21 10:06:25;;;;;;;7.90;4.20;;;;;;;31.25;27.42;99949.84;5040745;28;20017;-74
2021/08/21 10:08:59;;;;;;;8.27;4.13;;;;;;;31.48;27.47;99945.44;5049693;28;20269;-74
2021/08/21 10:11:25;;;;;;;9.57;3.85;;;;;;;31.55;27.97;99945.88;5053040;28;20029;-74
2021/08/21 10:13:52;;;;;;;6.07;4.25;;;;;;;31.68;26.46;99948.69;5044217;28;20041;-74
2021/08/21 10:16:19;;;;;;;7.63;4.03;;;;;;;31.46;26.87;99937.50;5056199;28;20245;-74
2021/08/21 10:18:47;;;;;;;8.15;4.00;;;;;;;31.33;27.23;99941.78;5058159;28;20211;-74
2021/08/21 10:21:14;;;;;;;6.07;3.70;;;;;;;31.12;27.23;99929.44;5050907;28;20350;-74
2021/08/21 10:23:44;;;;;;;10.35;4.05;;;;;;;31.39;26.52;99937.88;5047958;28;20033;-74
2021/08/21 10:26:31;;;;;;;8.25;3.53;;;;;;;31.21;26.19;99929.63;5043931;28;20342;-74
2021/08/21 10:28:59;;;;;;;7.63;4.18;;;;;;;30.98;26.26;99923.06;5059061;28;20231;-74
2021/08/21 10:31:47;;;;;;;9.45;3.90;;;;;;;30.28;27.73;99931.72;5052411;28;20029;-74
2021/08/21 10:34:14;;;;;;;5.70;3.80;;;;;;;30.29;27.89;99922.41;5050864;28;20074;-74
2021/08/21 10:36:50;;;;;;;5.78;3.60;;;;;;;30.44;27.38;99919.53;5053381;28;20098;-74
2021/08/21 10:39:36;;;;;;;5.20;3.65;;;;;;;30.57;26.82;99922.69;5053478;28;20047;-74
2021/08/21 10:42:30;;;;;;;7.40;4.05;;;;;;;30.66;26.97;99913.59;5047703;28;20068;-74
2021/08/21 10:44:58;;;;;;;6.90;3.72;;;;;;;30.63;26.97;99911.44;5035669;28;20017;-74
2021/08/21 10:47:35;;;;;;;6.15;3.25;;;;;;;30.84;27.51;99917.47;5057678;28;20064;-74
2021/08/21 10:50:20;;;;;;;4.00;3.28;;;;;;;30.76;27.57;99915.38;5054475;28;20040;-74
2021/08/21 10:52:56;;;;;;;5.68;3.85;;;;;;;30.70;27.64;99914.63;5045028;28;20146;-74
2021/08/21 10:55:43;;;;;;;5.80;3.45;;;;;;;30.69;27.84;99910.28;5049611;28;21378;-74
2021/08/21 10:58:14;;;;;;;7.65;3.60;;;;;;;30.78;27.75;99910.44;5056642;28;20182;-74
2021/08/21 11:00:39;;;;;;;5.55;3.50;;;;;;;31.00;27.03;99899.78;5052510;28;20074;-74
2021/08/21 11:03:06;;;;;;;7.57;4.00;;;;;;;30.83;26.81;99896.72;5050579;28;20045;-74
2021/08/21 11:06:19;;;;;;;6.75;3.70;;;;;;;30.91;27.14;99895.25;5041813;28;20029;-74
2021/08/21 11:08:56;;;;;;;6.05;3.60;;;;;;;30.67;28.47;99898.81;5033041;28;20243;-74
2021/08/21 11:11:47;;;;;;;5.40;3.58;;;;;;;30.77;28.70;99884.22;5040894;28;20231;-74
2021/08/21 11:14:10;;;;;;;5.78;3.75;;;;;;;31.09;26.86;99886.25;5053646;28;20112;-74
2021/08/21 11:16:46;;;;;;;4.28;3.08;;;;;;;31.20;27.49;99884.22;5041760;28;20088;-74
2021/08/21 11:19:39;;;;;;;6.28;3.50;;;;;;;31.11;27.01;99887.59;5049297;28;20075;-74
2021/08/21 11:22:20;;;;;;;6.97;3.42;;;;;;;31.23;27.26;99880.94;5045126;28;20057;-74
2021/08/21 11:24:51;;;;;;;9.50;3.70;;;;;;;31.21;26.40;99880.38;5044430;28;20104;-74
2021/08/21 11:27:26;;;;;;;5.80;3.63;;;;;;;30.75;26.43;99884.50;5048997;28;20053;-74
2021/08/21 11:30:20;;;;;;;6.32;3.45;;;;;;;30.46;26.00;99879.06;5045687;28;20088;-74